ADDS METAR Data INFO
IDs: Format: Raw Decoded Include TAF

Data at: 2113 UTC 22 Oct 2017

KHZX 222054Z AUTO 25011G16KT 10SM CLR 15/M01 A2987 RMK AO2
KHZX 222035Z AUTO 22010G14KT 10SM CLR 15/00 A2988 RMK AO2
KHZX 222015Z AUTO 24008G15KT 10SM CLR 15/00 A2988 RMK AO2
KHZX 221954Z AUTO 23009G16KT 10SM CLR 15/00 A2987 RMK AO2
KHZX 221935Z AUTO 25008G14KT 10SM CLR 15/00 A2988 RMK AO2
KHZX 221915Z AUTO 24009G14KT 211V271 10SM CLR 15/00 A2988 RMK AO2
KHZX 221854Z AUTO 27008G16KT 10SM CLR 15/00 A2989 RMK AO2
KHZX 221835Z AUTO 27009G18KT 241V311 10SM CLR 14/00 A2989 RMK AO2
KHZX 221815Z AUTO 26008G18KT 10SM CLR 13/00 A2991 RMK AO2
KHZX 221754Z AUTO 25008KT 10SM CLR 13/01 A2991 RMK AO2
KHZX 221735Z AUTO 25013G17KT 10SM CLR 13/01 A2992 RMK AO2
KHZX 221715Z AUTO 27015G19KT 10SM CLR 13/01 A2992 RMK AO2
KHZX 221654Z AUTO 27008G21KT 10SM CLR 12/01 A2992 RMK AO2
KHZX 221635Z AUTO 27011G16KT 10SM CLR 12/02 A2992 RMK AO2
KHZX 221615Z AUTO 26008G18KT 231V291 10SM CLR 11/03 A2991 RMK AO2
KHZX 221554Z AUTO 25007KT 10SM CLR 10/04 A2991 RMK AO2
KHZX 221535Z AUTO 24005KT 10SM CLR 08/04 A2990 RMK AO2
KHZX 221515Z AUTO 21005KT 10SM CLR 06/04 A2990 RMK AO2
KHZX 221454Z AUTO 22005KT 10SM CLR 06/03 A2989 RMK AO2
KHZX 221435Z AUTO 22005KT 10SM CLR 06/04 A2989 RMK AO2
KHZX 221414Z AUTO 22007KT 10SM CLR 06/04 A2989 RMK AO2
KHZX 221355Z AUTO 22007KT 10SM CLR 06/04 A2988 RMK AO2
KHZX 221335Z AUTO 22006KT 10SM CLR 06/04 A2988 RMK AO2
KHZX 221314Z AUTO 22005KT 10SM CLR 06/04 A2987 RMK AO2
KHZX 221255Z AUTO 22004KT 10SM CLR 06/04 A2986 RMK AO2
KHZX 221235Z AUTO 22005KT 10SM CLR 06/05 A2985 RMK AO2
KHZX 221214Z AUTO 21004KT 10SM CLR 06/05 A2985 RMK AO2
KHZX 221154Z AUTO 21005KT 10SM CLR 07/05 A2984 RMK AO2
KHZX 221135Z AUTO 23005KT 10SM CLR 07/05 A2983 RMK AO2
KHZX 221114Z AUTO 23003KT 10SM CLR 07/05 A2983 RMK AO2
KHZX 221054Z AUTO 22005KT 10SM CLR 07/05 A2982 RMK AO2
KHZX 221035Z AUTO 23005KT 10SM CLR 07/05 A2982 RMK AO2
KHZX 221014Z AUTO 23006KT 10SM SCT050 07/05 A2982 RMK AO2
KHZX 220954Z AUTO 23006KT 10SM SCT050 07/05 A2981 RMK AO2
KHZX 220935Z AUTO 23006KT 10SM CLR 07/06 A2980 RMK AO2
KHZX 220915Z AUTO 23005KT 10SM CLR 07/06 A2979 RMK AO2
KHZX 220854Z AUTO 22006KT 10SM CLR 07/06 A2979 RMK AO2
KHZX 220835Z AUTO 22007KT 10SM CLR 07/06 A2979 RMK AO2
KHZX 220815Z AUTO 22006KT 10SM CLR 07/06 A2979 RMK AO2
KHZX 220754Z AUTO 22006KT 10SM CLR 07/06 A2979 RMK AO2
KHZX 220735Z AUTO 22005KT 10SM CLR 07/06 A2978 RMK AO2
KHZX 220714Z AUTO 22006KT 10SM CLR 07/06 A2978 RMK AO2
KHZX 220655Z AUTO 21004KT 10SM CLR 07/06 A2978 RMK AO2
KHZX 220635Z AUTO 21004KT 10SM CLR 07/06 A2979 RMK AO2
KHZX 220614Z AUTO 21003KT 10SM CLR 08/06 A2978 RMK AO2
KHZX 220555Z AUTO 21003KT 10SM CLR 08/06 A2977 RMK AO2
KHZX 220535Z AUTO 22003KT 10SM CLR 08/07 A2977 RMK AO2
KHZX 220514Z AUTO 22005KT 10SM CLR 09/07 A2976 RMK AO2
KHZX 220455Z AUTO 24005KT 10SM CLR 10/08 A2975 RMK AO2
KHZX 220435Z AUTO 24005KT 10SM CLR 10/08 A2974 RMK AO2
KHZX 220414Z AUTO 26005KT 10SM CLR 10/09 A2973 RMK AO2
KHZX 220355Z AUTO 25004KT 10SM CLR 11/09 A2973 RMK AO2
KHZX 220335Z AUTO 23004KT 10SM SCT045 11/10 A2972 RMK AO2 LTG DSNT SE
KHZX 220314Z AUTO 23005KT 10SM SCT033 SCT039 BKN046 11/10 A2970 RMK AO2
KHZX 220255Z AUTO 24003KT 10SM BKN032 OVC038 11/10 A2969 RMK AO2
KHZX 220235Z AUTO 24004KT 10SM OVC030 11/10 A2969 RMK AO2
KHZX 220214Z AUTO 23005KT 10SM OVC026 12/10 A2969 RMK AO2
KHZX 220155Z AUTO 25003KT 10SM SCT009 OVC028 12/11 A2968 RMK AO2 P0004
KHZX 220135Z AUTO 26009G21KT 10SM SCT009 BKN016 OVC028 12/11 A2968 RMK AO2 P0004 LTG DSNT E
KHZX 220114Z AUTO 25009G17KT 7SM SCT007 BKN017 OVC022 15/13 A2967 RMK AO2 P0003 LTG DSNT N
KHZX 220055Z AUTO 16010KT 10SM VCTS SCT017 BKN026 OVC050 17/16 A2964 RMK AO2 P0006 LTG DSNT W THRU N
KHZX 220035Z AUTO 17013G20KT 5SM SCT017 BKN031 OVC065 17/16 A2963 RMK AO2 P0006 LTG DSNT S AND SW
KHZX 220014Z AUTO 17012G20KT 10SM TS BKN014 OVC020 17/16 A2964 RMK AO2 LTG DSNT SE THRU NW
KHZX 212355Z AUTO 16012G19KT 10SM TS BKN013 OVC020 17/16 A2962 RMK AO2 LTG DSNT SW THRU NW
KHZX 212335Z AUTO 16013G22KT 10SM VCTS OVC010 17/16 A2961 RMK AO2 LTG DSNT S THRU NW
KHZX 212314Z AUTO 16015G21KT 10SM OVC010 17/16 A2961 RMK AO2 LTG DSNT SW AND NW
KHZX 212255Z AUTO 16014G17KT 10SM BKN007 OVC015 17/16 A2961 RMK AO2 LTG DSNT SW
KHZX 212235Z AUTO 16013G19KT 7SM OVC007 17/16 A2961 RMK AO2 LTG DSNT W
KHZX 212214Z AUTO 16014G21KT 5SM OVC007 16/16 A2961 RMK AO2 LTG DSNT S AND NW
KHZX 212155Z AUTO 16011G19KT 5SM OVC007 16/15 A2961 RMK AO2
KHZX 212135Z AUTO 16013G18KT 3SM BKN007 OVC011 16/15 A2961 RMK AO2
KHZX 212114Z AUTO 16011G17KT 3SM OVC007 16/15 A2962 RMK AO2
KHZX 212055Z AUTO 16012G19KT 3SM BKN007 OVC010 16/15 A2961 RMK AO2
KHZX 212035Z AUTO 16013G16KT 2 1/2SM OVC007 16/15 A2961 RMK AO2
KHZX 212014Z AUTO 16012G17KT 2 1/2SM OVC007 16/15 A2961 RMK AO2
KHZX 211955Z AUTO 17014G20KT 4SM OVC005 16/15 A2961 RMK AO2
KHZX 211935Z AUTO 17016G21KT 5SM OVC005 16/15 A2962 RMK AO2
KHZX 211915Z AUTO 17011G21KT 5SM OVC005 16/15 A2962 RMK AO2
KHZX 211855Z AUTO 16014G19KT 5SM OVC005 15/15 A2962 RMK AO2
KHZX 211834Z AUTO 16011G18KT 4SM OVC007 15/14 A2962 RMK AO2
KHZX 211815Z AUTO 16013G18KT 5SM OVC007 15/14 A2963 RMK AO2
KHZX 211755Z AUTO 16012G20KT 10SM OVC009 15/14 A2963 RMK AO2 P0002
KHZX 211734Z AUTO 16012G16KT 7SM BKN007 OVC012 15/14 A2963 RMK AO2 P0002
KHZX 211715Z AUTO 15010G14KT 7SM SCT008 BKN011 OVC026 15/13 A2963 RMK AO2 P0001
KHZX 211655Z AUTO 16011G17KT 7SM BKN010 OVC015 15/13 A2964 RMK AO2 P0002
KHZX 211634Z AUTO 16010G17KT 10SM OVC011 15/13 A2964 RMK AO2 P0001
KHZX 211615Z AUTO 15011G16KT 10SM BKN011 OVC016 15/13 A2964 RMK AO2 P0001 LTG DSNT SE
KHZX 211555Z AUTO 15011G16KT 10SM BKN011 OVC017 15/13 A2965 RMK AO2 P0007
KHZX 211534Z AUTO 17009G16KT 4SM OVC011 15/13 A2965 RMK AO2 P0004
KHZX 211515Z AUTO 16011G16KT 10SM OVC015 15/13 A2965 RMK AO2
KHZX 211455Z AUTO 16012G16KT 10SM BKN019 OVC024 15/13 A2964 RMK AO2
KHZX 211434Z AUTO 16011G19KT 10SM OVC021 16/12 A2964 RMK AO2
KHZX 211415Z AUTO 17015G20KT 10SM OVC023 17/12 A2965 RMK AO2
KHZX 211355Z AUTO 16010G21KT 10SM OVC023 17/12 A2964 RMK AO2 LTG DSNT S
KHZX 211334Z AUTO 16012KT 10SM OVC025 17/12 A2964 RMK AO2 LTG DSNT S
KHZX 211315Z AUTO 17014G19KT 10SM OVC025 17/12 A2963 RMK AO2 LTG DSNT SE AND SW
KHZX 211255Z AUTO 16014G21KT 10SM OVC027 17/12 A2963 RMK AO2
KHZX 211234Z AUTO 17010G18KT 10SM OVC027 17/12 A2963 RMK AO2
KHZX 211215Z AUTO 16013G18KT 10SM OVC027 17/12 A2963 RMK AO2
KHZX 211154Z AUTO 16013G17KT 10SM OVC029 16/12 A2963 RMK AO2
KHZX 211135Z AUTO 16012G18KT 10SM BKN029 16/11 A2963 RMK AO2
KHZX 211115Z AUTO 17011G20KT 10SM SCT029 16/11 A2963 RMK AO2
KHZX 211054Z AUTO 16011G19KT 10SM CLR 16/11 A2963 RMK AO2
KHZX 211035Z AUTO 16010G16KT 10SM CLR 16/12 A2963 RMK AO2
KHZX 211015Z AUTO 16012G16KT 10SM SCT110 16/12 A2963 RMK AO2
KHZX 210955Z AUTO 16010G14KT 10SM BKN120 16/12 A2963 RMK AO2
KHZX 210934Z AUTO 16015G19KT 10SM SCT060 BKN120 16/12 A2963 RMK AO2
KHZX 210914Z AUTO 16012G20KT 10SM SCT060 SCT120 16/12 A2964 RMK AO2